JAL50 OTHH-RJTT
Flight info
| Callsign | JAL50 |
|---|---|
| Flight time | N/A |
| Altitude | 35000 |
| Route | KUPRO N300 NOLSU P307 VAXIM L301 RASKI L639 BPL A791 ARIVO/N0495F370 A791 CEA B465 CTG A599 LINSO/K0911S1130 A599 SGM A581 IDGAG/K0904S1190 A581 WHA R343 PK A593 AKARA/K0904F390 A593 LAMEN/N0488F390 A593 SADLI Y590 BEDAR DCT BIGIT Y591 FUE Y23 ARTIC Y71 XAC |
| Aircraft | B77W/H-SDE1E2E3FGHIJ3J5J6LM1M2OP1P2RVWXYZ/LB1D1 |
Departure
| Time | 2026-02-18 22:59 |
|---|---|
| Airport | Hamad International Airport (OTHH) |
Arrival
| Time | N/A |
|---|---|
| Airport | Tokyo Haneda International Airport (RJTT) |
| Time | Latitude | Longitude | Altitude | Speed | Heading |
|---|---|---|---|---|---|
| 2026-02-18 22:25 | 25.26378 | 51.61720 | 27 ft | 0 kts | 182° |
| 2026-02-18 22:47 | 25.26381 | 51.61720 | 27 ft | 1 kts | 182° |
| 2026-02-18 22:47 | 25.26399 | 51.61721 | 27 ft | 3 kts | 184° |
| 2026-02-18 22:47 | 25.26419 | 51.61723 | 27 ft | 3 kts | 184° |
| 2026-02-18 22:48 | 25.26430 | 51.61724 | 27 ft | 2 kts | 181° |
| 2026-02-18 22:48 | 25.26441 | 51.61724 | 27 ft | 3 kts | 149° |
| 2026-02-18 22:48 | 25.26447 | 51.61720 | 27 ft | 3 kts | 109° |
| 2026-02-18 22:48 | 25.26450 | 51.61703 | 27 ft | 3 kts | 88° |
| 2026-02-18 22:49 | 25.26444 | 51.61668 | 27 ft | 0 kts | 68° |
| 2026-02-18 22:53 | 25.26467 | 51.61729 | 27 ft | 12 kts | 68° |
| 2026-02-18 22:53 | 25.26497 | 51.61812 | 27 ft | 12 kts | 68° |
| 2026-02-18 22:54 | 25.26527 | 51.61896 | 27 ft | 12 kts | 68° |
| 2026-02-18 22:54 | 25.26557 | 51.61979 | 27 ft | 12 kts | 69° |
| 2026-02-18 22:54 | 25.26526 | 51.62053 | 27 ft | 12 kts | 147° |
| 2026-02-18 22:54 | 25.26452 | 51.62092 | 27 ft | 12 kts | 156° |
| 2026-02-18 22:55 | 25.26359 | 51.62134 | 27 ft | 15 kts | 159° |
| 2026-02-18 22:55 | 25.26255 | 51.62179 | 27 ft | 19 kts | 158° |
| 2026-02-18 22:55 | 25.26114 | 51.62240 | 28 ft | 23 kts | 158° |
| 2026-02-18 22:55 | 25.25966 | 51.62306 | 28 ft | 23 kts | 158° |
| 2026-02-18 22:56 | 25.25819 | 51.62371 | 27 ft | 22 kts | 158° |
| 2026-02-18 22:56 | 25.25782 | 51.62380 | 27 ft | 3 kts | 143° |
| 2026-02-18 22:56 | 25.25786 | 51.62399 | 27 ft | 1 kts | 39° |
| 2026-02-18 22:56 | 25.25817 | 51.62386 | 27 ft | 9 kts | 330° |
| 2026-02-18 22:57 | 25.25936 | 51.62319 | 28 ft | 10 kts | 341° |
| 2026-02-18 22:57 | 25.25993 | 51.62349 | 28 ft | 10 kts | 57° |
| 2026-02-18 22:57 | 25.26024 | 51.62417 | 27 ft | 10 kts | 66° |
| 2026-02-18 22:58 | 25.26076 | 51.62458 | 27 ft | 10 kts | 359° |
| 2026-02-18 22:58 | 25.26165 | 51.62421 | 28 ft | 25 kts | 338° |
| 2026-02-18 22:58 | 25.26486 | 51.62280 | 27 ft | 84 kts | 338° |
| 2026-02-18 22:58 | 25.27255 | 51.61941 | 27 ft | 151 kts | 338° |
| 2026-02-18 22:59 | 25.28373 | 51.61459 | 253 ft | 180 kts | 339° |
| 2026-02-18 22:59 | 25.29542 | 51.60932 | 895 ft | 183 kts | 339° |
| 2026-02-18 22:59 | 25.30729 | 51.60402 | 1571 ft | 185 kts | 339° |
| 2026-02-18 22:59 | 25.31973 | 51.59847 | 1881 ft | 203 kts | 339° |
| 2026-02-18 23:00 | 25.33332 | 51.59327 | 2247 ft | 211 kts | 354° |
| 2026-02-18 23:00 | 25.34765 | 51.59647 | 2679 ft | 216 kts | 33° |
| 2026-02-18 23:00 | 25.35730 | 51.60888 | 3236 ft | 217 kts | 70° |
| 2026-02-18 23:00 | 25.36054 | 51.62519 | 3794 ft | 218 kts | 82° |
| 2026-02-18 23:01 | 25.36401 | 51.65855 | 4815 ft | 223 kts | 83° |
| 2026-02-18 23:01 | 25.36584 | 51.67567 | 5393 ft | 225 kts | 83° |
| 2026-02-18 23:01 | 25.36777 | 51.69289 | 5982 ft | 227 kts | 83° |
| 2026-02-18 23:02 | 25.36770 | 51.71042 | 6405 ft | 234 kts | 101° |
| 2026-02-18 23:02 | 25.36386 | 51.72874 | 6634 ft | 253 kts | 104° |
| 2026-02-18 23:02 | 25.35972 | 51.74817 | 7052 ft | 266 kts | 103° |
| 2026-02-18 23:02 | 25.35567 | 51.76766 | 7555 ft | 275 kts | 103° |
| 2026-02-18 23:03 | 25.35150 | 51.78822 | 8182 ft | 280 kts | 103° |
| 2026-02-18 23:03 | 25.34725 | 51.80934 | 8885 ft | 282 kts | 102° |
| 2026-02-18 23:03 | 25.34302 | 51.83066 | 9569 ft | 285 kts | 102° |
| 2026-02-18 23:03 | 25.33882 | 51.85183 | 10254 ft | 287 kts | 102° |
| 2026-02-18 23:04 | 25.33440 | 51.87398 | 10599 ft | 305 kts | 102° |
| 2026-02-18 23:04 | 25.32968 | 51.89771 | 10787 ft | 328 kts | 102° |
| 2026-02-18 23:04 | 25.32462 | 51.92324 | 10969 ft | 351 kts | 102° |
| 2026-02-18 23:04 | 25.31922 | 51.95027 | 11353 ft | 366 kts | 102° |
| 2026-02-18 23:05 | 25.30801 | 52.00628 | 12815 ft | 378 kts | 102° |
| 2026-02-18 23:05 | 25.30229 | 52.03487 | 13650 ft | 382 kts | 102° |
| 2026-02-18 23:05 | 25.29651 | 52.06376 | 14413 ft | 387 kts | 102° |
| 2026-02-18 23:06 | 25.29065 | 52.09295 | 15127 ft | 393 kts | 102° |
| 2026-02-18 23:06 | 25.28331 | 52.12227 | 15851 ft | 398 kts | 107° |
| 2026-02-18 23:06 | 25.27414 | 52.15132 | 16577 ft | 403 kts | 109° |
| 2026-02-18 23:06 | 25.26449 | 52.18015 | 17249 ft | 408 kts | 109° |
| 2026-02-18 23:07 | 25.25462 | 52.20975 | 17897 ft | 413 kts | 109° |
| 2026-02-18 23:07 | 25.24482 | 52.23977 | 18539 ft | 418 kts | 108° |
| 2026-02-18 23:07 | 25.23509 | 52.27013 | 19148 ft | 422 kts | 108° |
| 2026-02-18 23:07 | 25.22531 | 52.30099 | 19703 ft | 428 kts | 108° |
| 2026-02-18 23:08 | 25.21548 | 52.33219 | 20276 ft | 433 kts | 108° |
| 2026-02-18 23:08 | 25.20550 | 52.36378 | 20842 ft | 437 kts | 108° |
| 2026-02-18 23:08 | 25.19616 | 52.39325 | 21317 ft | 442 kts | 109° |
| 2026-02-18 23:08 | 25.18595 | 52.42542 | 21820 ft | 446 kts | 108° |
| 2026-02-18 23:09 | 25.16537 | 52.49076 | 22807 ft | 454 kts | 109° |
| 2026-02-18 23:09 | 25.15496 | 52.52384 | 23273 ft | 458 kts | 109° |
| 2026-02-18 23:09 | 25.14440 | 52.55729 | 23713 ft | 463 kts | 109° |
| 2026-02-18 23:10 | 25.13368 | 52.59086 | 24121 ft | 467 kts | 110° |
| 2026-02-18 23:10 | 25.12530 | 52.61275 | 24387 ft | 469 kts | 115° |
| 2026-02-18 23:10 | 25.11037 | 52.64495 | 24802 ft | 473 kts | 118° |
| 2026-02-18 23:10 | 25.09464 | 52.67697 | 25210 ft | 476 kts | 118° |
| 2026-02-18 23:11 | 25.07435 | 52.72015 | 25741 ft | 480 kts | 117° |
| 2026-02-18 23:11 | 25.06451 | 52.74259 | 26016 ft | 482 kts | 114° |
| 2026-02-18 23:11 | 25.05223 | 52.77707 | 26426 ft | 484 kts | 109° |
| 2026-02-18 23:11 | 25.04316 | 52.81302 | 26811 ft | 488 kts | 104° |
| 2026-02-18 23:12 | 25.03536 | 52.84903 | 27153 ft | 491 kts | 104° |
| 2026-02-18 23:12 | 25.02744 | 52.88582 | 27506 ft | 494 kts | 104° |
| 2026-02-18 23:12 | 25.01933 | 52.92278 | 27876 ft | 497 kts | 104° |
| 2026-02-18 23:12 | 25.01102 | 52.95988 | 28224 ft | 499 kts | 105° |
| 2026-02-18 23:13 | 24.99403 | 53.03455 | 28838 ft | 505 kts | 105° |
| 2026-02-18 23:13 | 24.98544 | 53.07214 | 29145 ft | 507 kts | 105° |
| 2026-02-18 23:13 | 24.97672 | 53.10998 | 29439 ft | 509 kts | 105° |
| 2026-02-18 23:14 | 24.96798 | 53.14771 | 29722 ft | 511 kts | 105° |
| 2026-02-18 23:14 | 24.95913 | 53.18576 | 29986 ft | 513 kts | 105° |
| 2026-02-18 23:14 | 24.95025 | 53.22399 | 30263 ft | 515 kts | 105° |
| 2026-02-18 23:14 | 24.94145 | 53.26179 | 30602 ft | 515 kts | 105° |
| 2026-02-18 23:15 | 24.93258 | 53.29993 | 30989 ft | 514 kts | 106° |
| 2026-02-18 23:15 | 24.92371 | 53.33801 | 31345 ft | 513 kts | 105° |
| 2026-02-18 23:15 | 24.91485 | 53.37605 | 31701 ft | 512 kts | 105° |
| 2026-02-18 23:15 | 24.90600 | 53.41402 | 32048 ft | 512 kts | 106° |
| 2026-02-18 23:16 | 24.89661 | 53.45191 | 32335 ft | 512 kts | 108° |
| 2026-02-18 23:16 | 24.88642 | 53.48945 | 32657 ft | 512 kts | 108° |
| 2026-02-18 23:16 | 24.87588 | 53.52689 | 33008 ft | 511 kts | 109° |
| 2026-02-18 23:16 | 24.86535 | 53.56428 | 33362 ft | 510 kts | 108° |
| 2026-02-18 23:17 | 24.84465 | 53.63884 | 33917 ft | 510 kts | 108° |
| 2026-02-18 23:17 | 24.83438 | 53.67629 | 34192 ft | 510 kts | 108° |
| 2026-02-18 23:17 | 24.82353 | 53.71600 | 34519 ft | 509 kts | 108° |
| 2026-02-18 23:18 | 24.81397 | 53.75093 | 34788 ft | 508 kts | 108° |
| 2026-02-18 23:18 | 24.80377 | 53.78816 | 34982 ft | 510 kts | 108° |
| 2026-02-18 23:18 | 24.79345 | 53.82579 | 35023 ft | 513 kts | 108° |
| 2026-02-18 23:19 | 24.77291 | 53.90044 | 35043 ft | 511 kts | 108° |
| 2026-02-18 23:19 | 24.75591 | 53.97622 | 35048 ft | 508 kts | 95° |
| 2026-02-18 23:20 | 24.76038 | 54.05361 | 35063 ft | 510 kts | 76° |
| 2026-02-18 23:20 | 24.78173 | 54.12816 | 35060 ft | 511 kts | 71° |
| 2026-02-18 23:21 | 24.81465 | 54.23958 | 35057 ft | 513 kts | 73° |
| 2026-02-18 23:21 | 24.83586 | 54.31479 | 35060 ft | 515 kts | 73° |
| 2026-02-18 23:22 | 24.85709 | 54.39021 | 35053 ft | 516 kts | 73° |
| 2026-02-18 23:22 | 24.87851 | 54.46575 | 35054 ft | 516 kts | 73° |
| 2026-02-18 23:23 | 24.89994 | 54.54117 | 35052 ft | 516 kts | 73° |
| 2026-02-18 23:23 | 24.92132 | 54.61671 | 35056 ft | 516 kts | 73° |
| 2026-02-18 23:24 | 24.93975 | 54.69245 | 35065 ft | 515 kts | 79° |
| 2026-02-18 23:24 | 24.95383 | 54.77023 | 35064 ft | 514 kts | 79° |
| 2026-02-18 23:25 | 24.97570 | 54.88606 | 35066 ft | 515 kts | 79° |
| 2026-02-18 23:26 | 24.99011 | 54.96282 | 35074 ft | 515 kts | 79° |
| 2026-02-18 23:26 | 25.00458 | 55.04030 | 35077 ft | 516 kts | 79° |
| 2026-02-18 23:27 | 25.01903 | 55.11782 | 35074 ft | 517 kts | 79° |
| 2026-02-18 23:27 | 25.03354 | 55.19585 | 35068 ft | 517 kts | 79° |
| 2026-02-18 23:28 | 25.04818 | 55.27354 | 35070 ft | 518 kts | 78° |
| 2026-02-18 23:28 | 25.06283 | 55.35081 | 35069 ft | 518 kts | 78° |
| 2026-02-18 23:29 | 25.08485 | 55.46778 | 35071 ft | 518 kts | 79° |
| 2026-02-18 23:29 | 25.09944 | 55.54558 | 35080 ft | 518 kts | 79° |
| 2026-02-18 23:30 | 25.11371 | 55.62308 | 35074 ft | 518 kts | 79° |
| 2026-02-18 23:30 | 25.12785 | 55.70107 | 35071 ft | 518 kts | 79° |
| 2026-02-18 23:31 | 25.14206 | 55.77909 | 35074 ft | 518 kts | 78° |
| 2026-02-18 23:31 | 25.15777 | 55.85687 | 35074 ft | 519 kts | 77° |
| 2026-02-18 23:32 | 25.17404 | 55.93493 | 35073 ft | 519 kts | 77° |
| 2026-02-18 23:32 | 25.18987 | 56.01256 | 35080 ft | 520 kts | 78° |
| 2026-02-18 23:33 | 25.20390 | 56.13018 | 35084 ft | 517 kts | 96° |
| 2026-02-18 23:34 | 25.18924 | 56.20730 | 35084 ft | 513 kts | 111° |
| 2026-02-18 23:34 | 25.16448 | 56.28118 | 35072 ft | 513 kts | 112° |
| 2026-02-18 23:35 | 25.13992 | 56.35540 | 35078 ft | 514 kts | 111° |
| 2026-02-18 23:35 | 25.11606 | 56.42978 | 35081 ft | 514 kts | 111° |
| 2026-02-18 23:36 | 25.09221 | 56.50436 | 35078 ft | 515 kts | 111° |
| 2026-02-18 23:36 | 25.06751 | 56.57833 | 35067 ft | 514 kts | 114° |
| 2026-02-18 23:37 | 25.02651 | 56.68697 | 35072 ft | 513 kts | 115° |
| 2026-02-18 23:37 | 24.99906 | 56.75962 | 35076 ft | 513 kts | 114° |
| 2026-02-18 23:38 | 24.97195 | 56.83236 | 35073 ft | 513 kts | 114° |
| 2026-02-18 23:38 | 24.94491 | 56.90514 | 35070 ft | 513 kts | 114° |
| 2026-02-18 23:39 | 24.91789 | 56.97776 | 35071 ft | 512 kts | 114° |
| 2026-02-18 23:39 | 24.89075 | 57.05047 | 35075 ft | 512 kts | 114° |
| 2026-02-18 23:40 | 24.86363 | 57.12301 | 35074 ft | 513 kts | 114° |
| 2026-02-18 23:40 | 24.83657 | 57.19520 | 35071 ft | 513 kts | 114° |
| 2026-02-18 23:41 | 24.79566 | 57.30412 | 35074 ft | 513 kts | 114° |
| 2026-02-18 23:42 | 24.76841 | 57.37653 | 35073 ft | 513 kts | 114° |
| 2026-02-18 23:42 | 24.74104 | 57.44917 | 35072 ft | 513 kts | 114° |
| 2026-02-18 23:43 | 24.71369 | 57.52160 | 35071 ft | 513 kts | 114° |
| 2026-02-18 23:43 | 24.68628 | 57.59401 | 35073 ft | 513 kts | 114° |
| 2026-02-18 23:44 | 24.65889 | 57.66636 | 35072 ft | 513 kts | 114° |
| 2026-02-18 23:44 | 24.63147 | 57.73863 | 35063 ft | 512 kts | 114° |
| 2026-02-18 23:45 | 24.59039 | 57.84664 | 35065 ft | 512 kts | 114° |
| 2026-02-18 23:45 | 24.56285 | 57.91891 | 35064 ft | 512 kts | 114° |
| 2026-02-18 23:46 | 24.53536 | 57.99093 | 35065 ft | 511 kts | 115° |
| 2026-02-18 23:46 | 24.50787 | 58.06288 | 35064 ft | 512 kts | 115° |
| 2026-02-18 23:47 | 24.48028 | 58.13500 | 35066 ft | 512 kts | 115° |
| 2026-02-18 23:47 | 24.45262 | 58.20709 | 35068 ft | 512 kts | 115° |
| 2026-02-18 23:48 | 24.42497 | 58.27907 | 35065 ft | 512 kts | 115° |
| 2026-02-18 23:48 | 24.39726 | 58.35109 | 35065 ft | 512 kts | 115° |
| 2026-02-18 23:49 | 24.35567 | 58.45900 | 35061 ft | 512 kts | 115° |
| 2026-02-18 23:50 | 24.32802 | 58.53059 | 35055 ft | 512 kts | 115° |
| 2026-02-18 23:50 | 24.30003 | 58.60281 | 35056 ft | 512 kts | 115° |
| 2026-02-18 23:51 | 24.27209 | 58.67478 | 35057 ft | 512 kts | 115° |
| 2026-02-18 23:51 | 24.24434 | 58.74621 | 35056 ft | 512 kts | 115° |
| 2026-02-18 23:52 | 24.21638 | 58.81801 | 35055 ft | 513 kts | 115° |
| 2026-02-18 23:52 | 24.19286 | 58.87831 | 35054 ft | 513 kts | 115° |
| 2026-02-18 23:53 | 24.15097 | 58.98560 | 35055 ft | 513 kts | 115° |
| 2026-02-18 23:53 | 24.12279 | 59.05761 | 35056 ft | 513 kts | 115° |
| 2026-02-18 23:54 | 24.09462 | 59.12942 | 35057 ft | 514 kts | 115° |
| 2026-02-18 23:54 | 24.06646 | 59.20117 | 35057 ft | 514 kts | 115° |
| 2026-02-18 23:55 | 24.03822 | 59.27305 | 35062 ft | 513 kts | 115° |
| 2026-02-18 23:55 | 24.01001 | 59.34477 | 35068 ft | 514 kts | 114° |
| 2026-02-18 23:56 | 23.98300 | 59.41728 | 35071 ft | 514 kts | 113° |
| 2026-02-18 23:56 | 23.95658 | 59.48976 | 35065 ft | 514 kts | 113° |
| 2026-02-18 23:57 | 23.91648 | 59.59838 | 35065 ft | 513 kts | 113° |
| 2026-02-18 23:58 | 23.88967 | 59.67049 | 35063 ft | 512 kts | 113° |
| 2026-02-18 23:58 | 23.86285 | 59.74269 | 35061 ft | 512 kts | 114° |
| 2026-02-18 23:59 | 23.83595 | 59.81488 | 35063 ft | 513 kts | 114° |
| 2026-02-18 23:59 | 23.80913 | 59.88657 | 35065 ft | 513 kts | 114° |
| 2026-02-19 00:00 | 23.78211 | 59.95871 | 35066 ft | 513 kts | 114° |
| 2026-02-19 00:00 | 23.75502 | 60.03094 | 35064 ft | 514 kts | 114° |
| 2026-02-19 00:01 | 23.71430 | 60.13929 | 35070 ft | 514 kts | 114° |
| 2026-02-19 00:01 | 23.68709 | 60.21158 | 35081 ft | 514 kts | 114° |
| 2026-02-19 00:02 | 23.65990 | 60.28366 | 35068 ft | 513 kts | 114° |
| 2026-02-19 00:02 | 23.63283 | 60.35529 | 35074 ft | 513 kts | 114° |
| 2026-02-19 00:03 | 23.60558 | 60.42729 | 35080 ft | 513 kts | 114° |
| 2026-02-19 00:03 | 23.57835 | 60.49916 | 35073 ft | 513 kts | 114° |
| 2026-02-19 00:04 | 23.55106 | 60.57105 | 35072 ft | 512 kts | 114° |
| 2026-02-19 00:04 | 23.52380 | 60.64275 | 35072 ft | 512 kts | 114° |
| 2026-02-19 00:05 | 23.48295 | 60.74999 | 35081 ft | 512 kts | 114° |
| 2026-02-19 00:06 | 23.45559 | 60.82167 | 35071 ft | 512 kts | 114° |
| 2026-02-19 00:06 | 23.42818 | 60.89333 | 35077 ft | 512 kts | 114° |
| 2026-02-19 00:07 | 23.40079 | 60.96485 | 35063 ft | 512 kts | 114° |
| 2026-02-19 00:07 | 23.37351 | 61.03601 | 35041 ft | 512 kts | 114° |
| 2026-02-19 00:08 | 23.34605 | 61.10748 | 35038 ft | 512 kts | 114° |
| 2026-02-19 00:08 | 23.32175 | 61.18035 | 35034 ft | 513 kts | 105° |
| 2026-02-19 00:09 | 23.30599 | 61.29541 | 35048 ft | 513 kts | 95° |
| 2026-02-19 00:09 | 23.29977 | 61.37288 | 35035 ft | 514 kts | 95° |
| 2026-02-19 00:10 | 23.29323 | 61.45024 | 35038 ft | 514 kts | 96° |
| 2026-02-19 00:10 | 23.28638 | 61.52731 | 35035 ft | 514 kts | 96° |
| 2026-02-19 00:11 | 23.27937 | 61.60476 | 35037 ft | 514 kts | 96° |
| 2026-02-19 00:11 | 23.27229 | 61.68231 | 35036 ft | 514 kts | 96° |
| 2026-02-19 00:12 | 23.26520 | 61.75978 | 35038 ft | 515 kts | 96° |
| 2026-02-19 00:12 | 23.25810 | 61.83723 | 35036 ft | 515 kts | 96° |
| 2026-02-19 00:13 | 23.24735 | 61.95357 | 35039 ft | 515 kts | 96° |
| 2026-02-19 00:14 | 23.24018 | 62.03071 | 35030 ft | 515 kts | 96° |
| 2026-02-19 00:14 | 23.23292 | 62.10824 | 35026 ft | 515 kts | 96° |
| 2026-02-19 00:15 | 23.22563 | 62.18582 | 35031 ft | 515 kts | 96° |
| 2026-02-19 00:15 | 23.21830 | 62.26335 | 35032 ft | 515 kts | 96° |
| 2026-02-19 00:16 | 23.21094 | 62.34088 | 35024 ft | 515 kts | 96° |
| 2026-02-19 00:16 | 23.20353 | 62.41831 | 35027 ft | 515 kts | 96° |
| 2026-02-19 00:17 | 23.19235 | 62.53457 | 35027 ft | 515 kts | 96° |
| 2026-02-19 00:17 | 23.18491 | 62.61144 | 35030 ft | 514 kts | 96° |
| 2026-02-19 00:18 | 23.17735 | 62.68920 | 35026 ft | 514 kts | 96° |
| 2026-02-19 00:18 | 23.16983 | 62.76608 | 35027 ft | 514 kts | 96° |
| 2026-02-19 00:19 | 23.16224 | 62.84323 | 35031 ft | 514 kts | 96° |
| 2026-02-19 00:19 | 23.15461 | 62.92048 | 35048 ft | 513 kts | 96° |
| 2026-02-19 00:20 | 23.14696 | 62.99757 | 35057 ft | 513 kts | 96° |
| 2026-02-19 00:20 | 23.13927 | 63.07465 | 35055 ft | 513 kts | 96° |
| 2026-02-19 00:21 | 23.12764 | 63.19049 | 35055 ft | 514 kts | 96° |
| 2026-02-19 00:22 | 23.11983 | 63.26771 | 35057 ft | 514 kts | 96° |
| 2026-02-19 00:22 | 23.11201 | 63.34468 | 35056 ft | 514 kts | 96° |
| 2026-02-19 00:23 | 23.10419 | 63.42151 | 35048 ft | 514 kts | 96° |
| 2026-02-19 00:23 | 23.09629 | 63.49860 | 35046 ft | 513 kts | 97° |
| 2026-02-19 00:24 | 23.08834 | 63.57573 | 35045 ft | 513 kts | 97° |
| 2026-02-19 00:24 | 23.08036 | 63.65275 | 35046 ft | 513 kts | 97° |
| 2026-02-19 00:25 | 23.06833 | 63.76835 | 35046 ft | 513 kts | 97° |
| 2026-02-19 00:25 | 23.06029 | 63.84522 | 35046 ft | 513 kts | 97° |
| 2026-02-19 00:26 | 23.05231 | 63.92236 | 35038 ft | 513 kts | 96° |
| 2026-02-19 00:26 | 23.04461 | 63.99901 | 35035 ft | 513 kts | 96° |
| 2026-02-19 00:27 | 23.03680 | 64.07645 | 35037 ft | 513 kts | 96° |
| 2026-02-19 00:27 | 23.02898 | 64.15317 | 35039 ft | 514 kts | 96° |
| 2026-02-19 00:28 | 23.02110 | 64.23019 | 35041 ft | 514 kts | 96° |
| 2026-02-19 00:28 | 23.01315 | 64.30734 | 35036 ft | 514 kts | 96° |
| 2026-02-19 00:29 | 23.00111 | 64.42308 | 35028 ft | 514 kts | 97° |
| 2026-02-19 00:30 | 22.99312 | 64.50014 | 35029 ft | 514 kts | 97° |
| 2026-02-19 00:30 | 22.98504 | 64.57743 | 35027 ft | 514 kts | 97° |
| 2026-02-19 00:31 | 22.97692 | 64.65457 | 35027 ft | 514 kts | 97° |
| 2026-02-19 00:31 | 22.96875 | 64.73177 | 35027 ft | 514 kts | 97° |
| 2026-02-19 00:32 | 22.96058 | 64.80887 | 35030 ft | 514 kts | 96° |